Aérodrome :
LOGIN :

S'inscrire | Disclaimer

   EN    FR    IT 

 










Légende :    VFR   VFR Marginal   IFR   IFR Intensif   IFR Très Intensif
Visi : 
Plafond : 
>= 8 km
>= 3000ft
5 à 8 km
1000 à 3000 ft
1500m à 5 km
500 à 1000 ft
800 à 1500m
200 à 500 ft
< 800m
< 200 ft
Symboles :   Orages  Brouillard  Fortes neiges  Fortes précipitations  Vent > 20 kt
SIGMETs :   Divers  Orages  Givrage  Turbulence  Onde Orograph.  Cendres Volcan.






- Altitude de l'aérodrome : 82 ft
- Code IATA : AAR


EKAH - Aarhus Tirstrup

DERNIER METAR :
  • 261950Z AUTO 20007KT 150V250 6000NDV OVC007/// 05/04 Q1011

METARs EXPIRÉS :
  • 261920Z AUTO 20007KT 160V250 7000NDV OVC007/// 05/04 Q1011
  • 261850Z AUTO 20006KT 130V260 7000NDV OVC007/// 05/04 Q1011
  • 261820Z AUTO 19005KT 140V280 8000NDV OVC007/// 05/04 Q1011
  • 261750Z AUTO 19007KT 140V240 8000NDV OVC008/// 05/04 Q1011
  • 261720Z AUTO VRB06KT 9999NDV OVC010/// 05/04 Q1011

TAF AMD TAF EKAH
Valide du 26 à 18h jusqu'au 27 à 18h UTC


261827Z 2618/2718 20010KT 8000 BKN010
TEMPO 2618/2707 1200 BR BKN002
TEMPO 2707/2712 2500 BR RADZ BKN004
BECMG 2712/2714 BKN020



MET'MAP, la Météo Aéronautique d'un coup d'oeil ! - Copyright ORBIFLY Décembre 2007 - Disclaimer

ORBIFLY MET'MAP TEAM :

Programmation & Développement : Alexandra Zaïnal
Sur une idée originale de : Baudouin d'Aumeries
Assistance à la programmation : Marc-Olivier Méhu
Soutien technique & logistique : Manuel Goepfert

Contact : metmap@orbifly.com




SOURCES & CREDITS :

   NOAA